createdAt,value
2017-09-16T00:01:49.216Z,99.53
2017-09-16T00:04:16.760Z,99.22
2017-09-16T00:06:44.259Z,99.34
2017-09-16T00:09:11.794Z,99.63
2017-09-16T00:11:39.310Z,99.57
2017-09-16T00:14:06.819Z,99.40
2017-09-16T00:16:34.316Z,99.79
2017-09-16T00:19:01.828Z,99.71
2017-09-16T00:21:29.318Z,99.07
2017-09-16T00:23:56.844Z,98.24
2017-09-16T00:26:24.357Z,97.89
2017-09-16T00:28:51.851Z,98.27
2017-09-16T00:31:19.354Z,98.40
2017-09-16T00:33:46.868Z,98.59
2017-09-16T00:36:14.388Z,98.79
2017-09-16T00:38:41.896Z,98.74
2017-09-16T00:41:09.431Z,98.11
2017-09-16T00:43:36.943Z,97.60
2017-09-16T00:46:04.482Z,96.50
2017-09-16T00:48:31.988Z,95.54
2017-09-16T00:50:59.485Z,96.34
2017-09-16T00:53:27.050Z,97.53
2017-09-16T00:55:54.554Z,98.26
2017-09-16T00:58:22.066Z,98.48
2017-09-16T01:00:49.622Z,98.71
2017-09-16T01:03:17.122Z,98.79
2017-09-16T01:05:44.624Z,98.85
2017-09-16T01:08:12.136Z,98.62
2017-09-16T01:10:39.658Z,97.79
2017-09-16T01:13:07.151Z,97.12
2017-09-16T01:15:34.664Z,97.80
2017-09-16T01:18:02.156Z,98.72
2017-09-16T01:20:29.656Z,99.19
2017-09-16T01:22:57.168Z,99.86
2017-09-16T01:25:24.669Z,99.72
2017-09-16T01:27:52.179Z,99.70
2017-09-16T01:30:19.783Z,99.91
2017-09-16T01:32:47.350Z,100.00
2017-09-16T01:35:14.857Z,100.00
2017-09-16T01:37:42.360Z,100.00
2017-09-16T01:40:09.873Z,100.00
2017-09-16T01:42:37.400Z,100.00
2017-09-16T01:45:04.913Z,100.00
2017-09-16T01:47:32.427Z,100.00
2017-09-16T01:49:59.934Z,99.97
2017-09-16T01:52:27.461Z,100.00
2017-09-16T01:54:54.963Z,100.00
2017-09-16T01:57:22.480Z,100.00
2017-09-16T01:59:49.983Z,100.00
2017-09-16T02:02:17.504Z,100.00
2017-09-16T02:04:44.994Z,100.00
2017-09-16T02:07:12.500Z,99.84
2017-09-16T02:09:39.999Z,100.00
2017-09-16T02:12:07.510Z,99.92
2017-09-16T02:14:35.019Z,99.74
2017-09-16T02:17:02.539Z,99.65
2017-09-16T02:19:30.061Z,99.66
2017-09-16T02:21:57.576Z,99.32
2017-09-16T02:24:25.112Z,99.26
2017-09-16T02:26:52.627Z,98.62
2017-09-16T02:29:20.141Z,99.22
2017-09-16T02:31:47.699Z,99.62
2017-09-16T02:34:15.186Z,99.51
2017-09-16T02:36:42.694Z,99.43
2017-09-16T02:39:10.236Z,99.95
2017-09-16T02:41:37.745Z,98.74
2017-09-16T02:44:05.256Z,99.22
2017-09-16T02:46:32.798Z,99.46
2017-09-16T02:49:00.308Z,98.85
2017-09-16T02:51:27.810Z,97.87
2017-09-16T02:53:55.332Z,97.77
2017-09-16T02:56:22.827Z,97.24
2017-09-16T02:58:50.397Z,98.69
2017-09-16T03:01:17.902Z,99.43
2017-09-16T03:03:45.399Z,99.45
2017-09-16T03:06:12.903Z,99.66
2017-09-16T03:08:40.412Z,99.18
2017-09-16T03:11:08.745Z,97.95
2017-09-16T03:13:36.254Z,98.29
2017-09-16T03:16:03.762Z,98.93
2017-09-16T03:18:31.250Z,98.48
2017-09-16T03:20:58.758Z,98.30
2017-09-16T03:23:26.289Z,98.82
2017-09-16T03:25:53.822Z,98.72
2017-09-16T03:28:21.350Z,98.07
2017-09-16T03:30:48.875Z,97.91
2017-09-16T03:33:16.382Z,97.58
2017-09-16T03:35:43.898Z,97.59
2017-09-16T03:38:11.413Z,98.07
2017-09-16T03:40:38.926Z,98.54
2017-09-16T03:43:06.435Z,98.79
2017-09-16T03:45:33.930Z,99.04
2017-09-16T03:48:01.448Z,97.59
2017-09-16T03:50:28.951Z,96.11
2017-09-16T03:52:56.456Z,98.24
2017-09-16T03:55:23.961Z,98.93
2017-09-16T03:57:51.469Z,98.53
2017-09-16T04:00:18.967Z,98.83
2017-09-16T04:02:48.359Z,98.50
2017-09-16T04:05:15.880Z,98.17
2017-09-16T04:07:43.434Z,97.35
2017-09-16T04:10:10.942Z,96.65
2017-09-16T04:12:39.506Z,95.89
2017-09-16T04:15:07.028Z,95.99
2017-09-16T04:17:34.536Z,95.32
2017-09-16T04:20:02.033Z,96.39
2017-09-16T04:22:29.529Z,97.88
2017-09-16T04:24:57.037Z,98.11
2017-09-16T04:27:24.553Z,98.26
2017-09-16T04:29:52.614Z,98.17
2017-09-16T04:32:20.161Z,97.96
2017-09-16T04:34:48.468Z,97.94
2017-09-16T04:37:15.958Z,97.32
2017-09-16T04:39:43.485Z,95.64
2017-09-16T04:42:10.997Z,94.83
2017-09-16T04:44:38.495Z,95.14
2017-09-16T04:47:06.008Z,96.68
2017-09-16T04:49:33.520Z,97.65
2017-09-16T04:52:01.046Z,97.66
2017-09-16T04:54:28.619Z,98.18
2017-09-16T04:56:56.129Z,98.28
2017-09-16T04:59:23.627Z,98.14
2017-09-16T05:01:51.135Z,97.75
2017-09-16T05:04:18.646Z,96.66
2017-09-16T05:06:46.155Z,95.20
2017-09-16T05:09:13.650Z,95.82
2017-09-16T05:11:41.157Z,95.93
2017-09-16T05:14:08.677Z,95.92
2017-09-16T05:16:36.187Z,95.59
2017-09-16T05:19:03.702Z,95.34
2017-09-16T05:21:31.213Z,96.71
2017-09-16T05:23:58.716Z,96.93
2017-09-16T05:26:26.202Z,98.12
2017-09-16T05:28:53.719Z,98.55
2017-09-16T05:31:21.251Z,98.35
2017-09-16T05:33:48.767Z,98.47
2017-09-16T05:36:16.262Z,98.38
2017-09-16T05:38:43.759Z,97.87
2017-09-16T05:41:11.284Z,96.96
2017-09-16T05:43:38.780Z,95.12
2017-09-16T05:46:06.283Z,94.69
2017-09-16T05:48:33.782Z,95.19
2017-09-16T05:51:01.287Z,96.01
2017-09-16T05:53:28.796Z,96.03
2017-09-16T05:55:56.327Z,95.97
2017-09-16T05:58:23.832Z,94.03
2017-09-16T06:00:51.335Z,95.16
2017-09-16T06:03:18.898Z,95.31
2017-09-16T06:05:46.396Z,94.93
2017-09-16T06:08:13.963Z,93.42
2017-09-16T06:10:41.464Z,91.86
2017-09-16T06:13:08.972Z,91.45
2017-09-16T06:15:36.479Z,91.66
2017-09-16T06:18:03.991Z,90.64
2017-09-16T06:20:31.499Z,89.83
2017-09-16T06:22:58.992Z,91.33
2017-09-16T06:25:26.557Z,89.65
2017-09-16T06:27:54.059Z,88.70
2017-09-16T06:30:21.603Z,87.75
2017-09-16T06:32:49.111Z,84.49
2017-09-16T06:35:16.635Z,83.82
2017-09-16T06:37:44.159Z,85.13
2017-09-16T06:40:11.681Z,84.13
2017-09-16T06:42:39.199Z,82.31
2017-09-16T06:45:06.723Z,80.19
2017-09-16T06:47:34.240Z,83.17
2017-09-16T06:50:01.741Z,83.95
2017-09-16T06:52:29.290Z,79.49
2017-09-16T06:54:56.843Z,80.02
2017-09-16T06:57:24.352Z,76.89
2017-09-16T06:59:51.866Z,73.58
2017-09-16T07:02:19.374Z,73.16
2017-09-16T07:04:47.045Z,75.44
2017-09-16T07:07:14.544Z,77.28
2017-09-16T07:09:42.058Z,82.28
2017-09-16T07:12:10.399Z,83.09
2017-09-16T07:14:37.918Z,81.83
2017-09-16T07:17:05.435Z,79.62
2017-09-16T07:19:32.958Z,76.64
2017-09-16T07:22:00.498Z,75.81
2017-09-16T07:24:28.028Z,81.79
2017-09-16T07:26:55.541Z,78.66
2017-09-16T07:29:23.045Z,78.01
2017-09-16T07:31:50.560Z,76.49
2017-09-16T07:34:18.080Z,77.69
2017-09-16T07:36:45.606Z,81.14
2017-09-16T07:39:13.131Z,78.36
2017-09-16T07:41:40.656Z,77.23
2017-09-16T07:44:08.186Z,74.42
2017-09-16T07:46:35.691Z,76.62
2017-09-16T07:49:03.211Z,75.04
2017-09-16T07:51:30.719Z,77.20
2017-09-16T07:53:58.211Z,75.51
2017-09-16T07:56:25.751Z,75.25
2017-09-16T07:58:53.263Z,74.35
2017-09-16T08:01:20.764Z,75.39
2017-09-16T08:03:48.310Z,74.10
2017-09-16T08:06:15.839Z,73.82
2017-09-16T08:08:43.365Z,70.24
2017-09-16T08:11:10.998Z,69.22
2017-09-16T08:13:38.516Z,72.53
2017-09-16T08:16:06.042Z,70.71
2017-09-16T08:18:33.573Z,78.34
2017-09-16T08:21:01.095Z,74.49
2017-09-16T08:23:28.623Z,71.69
2017-09-16T08:25:56.128Z,73.95
2017-09-16T08:28:23.643Z,73.17
2017-09-16T08:30:51.155Z,70.47
2017-09-16T08:33:18.667Z,70.99
2017-09-16T08:35:46.183Z,71.25
2017-09-16T08:38:13.696Z,72.58
2017-09-16T08:40:41.213Z,71.91
2017-09-16T08:43:08.711Z,70.22
2017-09-16T08:45:36.259Z,64.25
2017-09-16T08:48:03.790Z,59.20
2017-09-16T08:50:31.293Z,62.62
2017-09-16T08:52:58.807Z,67.31
2017-09-16T08:55:26.320Z,62.75
2017-09-16T08:57:53.829Z,60.32
2017-09-16T09:00:21.353Z,59.02
2017-09-16T09:02:48.892Z,59.69
2017-09-16T09:05:16.393Z,60.67
2017-09-16T09:07:43.901Z,60.14
2017-09-16T09:10:11.403Z,62.15
2017-09-16T09:12:38.972Z,59.31
2017-09-16T09:15:06.504Z,62.83
2017-09-16T09:17:34.014Z,61.05
2017-09-16T09:20:01.536Z,64.54
2017-09-16T09:22:29.045Z,63.76
2017-09-16T09:24:56.559Z,62.53
2017-09-16T09:27:24.079Z,64.88
2017-09-16T09:29:51.603Z,64.48
2017-09-16T09:32:19.119Z,69.84
2017-09-16T09:34:46.624Z,69.58
2017-09-16T09:37:14.141Z,65.82
2017-09-16T09:39:41.635Z,64.63
2017-09-16T09:42:09.161Z,68.29
2017-09-16T09:44:36.675Z,70.59
2017-09-16T09:47:04.188Z,73.01
2017-09-16T09:49:31.690Z,67.49
2017-09-16T09:51:59.203Z,66.02
2017-09-16T09:54:26.702Z,65.25
2017-09-16T09:56:54.210Z,68.68
2017-09-16T09:59:21.708Z,68.08
2017-09-16T10:01:49.224Z,70.62
2017-09-16T10:04:16.775Z,74.26
2017-09-16T10:06:44.274Z,74.84
2017-09-16T10:09:11.805Z,74.61
2017-09-16T10:11:39.310Z,74.02
2017-09-16T10:14:06.814Z,75.25
2017-09-16T10:16:34.341Z,74.19
2017-09-16T10:19:01.844Z,76.16
2017-09-16T10:21:29.395Z,74.50
2017-09-16T10:23:56.929Z,72.80
2017-09-16T10:26:24.457Z,72.06
2017-09-16T10:28:52.031Z,70.71
2017-09-16T10:31:19.542Z,72.06
2017-09-16T10:33:47.043Z,68.05
2017-09-16T10:36:14.542Z,68.11
2017-09-16T10:38:42.048Z,65.14
2017-09-16T10:41:09.560Z,63.70
2017-09-16T10:43:37.067Z,60.74
2017-09-16T10:46:04.709Z,59.40
2017-09-16T10:48:32.222Z,55.85
2017-09-16T10:50:59.743Z,57.90
2017-09-16T10:53:27.252Z,56.61
2017-09-16T10:55:54.818Z,58.25
2017-09-16T10:58:22.408Z,62.19
2017-09-16T11:00:49.979Z,65.36
2017-09-16T11:03:17.498Z,63.45
2017-09-16T11:05:45.071Z,63.97
2017-09-16T11:08:12.607Z,63.31
2017-09-16T11:10:40.136Z,64.08
2017-09-16T11:13:07.650Z,58.30
2017-09-16T11:15:35.201Z,58.87
2017-09-16T11:18:02.836Z,58.41
2017-09-16T11:20:30.350Z,55.26
2017-09-16T11:22:57.908Z,40.33
2017-09-16T11:25:25.410Z,35.93
2017-09-16T11:27:52.961Z,33.22
2017-09-16T11:30:20.489Z,31.84
2017-09-16T11:32:47.988Z,34.34
2017-09-16T11:35:15.501Z,34.27
2017-09-16T11:37:43.127Z,32.88
2017-09-16T11:40:10.643Z,31.05
2017-09-16T11:42:38.174Z,27.94
2017-09-16T11:45:06.671Z,33.55
2017-09-16T11:47:34.175Z,30.41
2017-09-16T11:50:01.716Z,31.47
2017-09-16T11:52:29.244Z,29.85
2017-09-16T11:54:57.084Z,30.11
2017-09-16T11:57:24.599Z,33.27
2017-09-16T11:59:52.125Z,29.12
2017-09-16T12:02:19.631Z,31.00
2017-09-16T12:04:47.148Z,34.08
2017-09-16T12:07:14.668Z,37.69
2017-09-16T12:09:42.231Z,39.16
2017-09-16T12:12:09.774Z,34.86
2017-09-16T12:14:37.294Z,32.55
2017-09-16T12:17:04.845Z,29.79
2017-09-16T12:19:32.372Z,32.92
2017-09-16T12:21:59.870Z,31.62
2017-09-16T12:24:27.407Z,32.76
2017-09-16T12:26:55.043Z,33.89
2017-09-16T12:29:22.710Z,37.32
2017-09-16T12:31:50.239Z,38.91
2017-09-16T12:34:18.018Z,40.04
2017-09-16T12:36:45.571Z,41.57
2017-09-16T12:39:13.077Z,40.69
2017-09-16T12:41:40.589Z,41.69
2017-09-16T12:44:08.279Z,34.98
2017-09-16T12:46:35.907Z,37.71
2017-09-16T12:49:03.576Z,34.98
2017-09-16T12:51:31.319Z,36.35
2017-09-16T12:53:58.839Z,38.51
2017-09-16T12:56:26.362Z,42.01
2017-09-16T12:58:53.877Z,44.87
2017-09-16T13:01:21.405Z,46.88
2017-09-16T13:03:48.911Z,44.98
2017-09-16T13:06:16.419Z,50.63
2017-09-16T13:08:43.952Z,51.27
2017-09-16T13:11:11.479Z,51.74
2017-09-16T13:13:39.158Z,52.48
2017-09-16T13:16:06.707Z,53.18
2017-09-16T13:18:34.228Z,55.88
2017-09-16T13:21:01.739Z,56.38
2017-09-16T13:23:30.120Z,56.47
2017-09-16T13:25:57.892Z,57.17
2017-09-16T13:28:25.962Z,56.34
2017-09-16T13:30:53.480Z,54.75
2017-09-16T13:33:20.999Z,53.09
2017-09-16T13:35:48.728Z,51.86
2017-09-16T13:38:16.748Z,50.75
2017-09-16T13:40:44.289Z,48.87
2017-09-16T13:43:11.809Z,45.59
2017-09-16T13:45:39.326Z,44.13
2017-09-16T13:48:06.844Z,42.92
2017-09-16T13:50:34.350Z,42.79
2017-09-16T13:53:01.854Z,42.49
2017-09-16T13:55:29.604Z,40.63
2017-09-16T13:57:57.120Z,42.57
2017-09-16T14:00:24.636Z,44.43
2017-09-16T14:02:52.305Z,45.30
2017-09-16T14:05:19.859Z,45.81
2017-09-16T14:07:47.388Z,45.21
2017-09-16T14:10:15.167Z,44.97
2017-09-16T14:12:42.956Z,44.73
2017-09-16T14:15:10.479Z,46.36
2017-09-16T14:17:38.000Z,47.24
2017-09-16T14:20:05.516Z,45.00
2017-09-16T14:22:33.020Z,47.34
2017-09-16T14:25:00.560Z,48.39
2017-09-16T14:27:28.980Z,46.52
2017-09-16T14:29:56.963Z,44.91
2017-09-16T14:32:24.494Z,47.99
2017-09-16T14:34:52.312Z,46.56
2017-09-16T14:37:19.957Z,45.42
2017-09-16T14:39:47.475Z,45.24
2017-09-16T14:42:15.046Z,48.05
2017-09-16T14:44:42.671Z,48.73
2017-09-16T14:47:10.210Z,50.17
2017-09-16T14:49:37.740Z,51.56
2017-09-16T14:52:05.402Z,52.26
2017-09-16T14:54:32.961Z,54.82
2017-09-16T14:57:00.465Z,56.33
2017-09-16T14:59:27.975Z,56.50
2017-09-16T15:01:55.511Z,57.94
2017-09-16T15:04:23.208Z,57.47
2017-09-16T15:06:50.741Z,58.76
2017-09-16T15:09:18.268Z,57.78
2017-09-16T15:11:45.768Z,57.59
2017-09-16T15:14:13.590Z,57.74
2017-09-16T15:16:41.612Z,57.33
2017-09-16T15:19:09.203Z,57.71
2017-09-16T15:21:37.026Z,59.79
2017-09-16T15:24:04.547Z,59.85
2017-09-16T15:26:32.352Z,61.25
2017-09-16T15:29:00.020Z,61.11
2017-09-16T15:31:27.530Z,60.54
2017-09-16T15:33:55.044Z,61.04
2017-09-16T15:36:22.551Z,60.70
2017-09-16T15:38:50.448Z,60.70
2017-09-16T15:41:17.977Z,59.63
2017-09-16T15:43:45.784Z,61.01
2017-09-16T15:46:13.562Z,62.68
2017-09-16T15:48:41.461Z,64.60
2017-09-16T15:51:09.420Z,63.21
2017-09-16T15:53:37.238Z,62.87
2017-09-16T15:56:04.962Z,63.73
2017-09-16T15:58:32.776Z,63.67
2017-09-16T16:01:00.630Z,63.62
2017-09-16T16:03:28.580Z,65.49
2017-09-16T16:05:56.102Z,64.47
2017-09-16T16:08:23.641Z,64.08
2017-09-16T16:10:51.411Z,65.89
2017-09-16T16:13:19.347Z,67.57
2017-09-16T16:15:46.882Z,69.34
2017-09-16T16:18:14.394Z,69.06
2017-09-16T16:20:41.943Z,69.32
2017-09-16T16:23:09.787Z,68.91
2017-09-16T16:25:37.879Z,69.73
2017-09-16T16:28:05.392Z,70.37
2017-09-16T16:30:32.942Z,68.82
2017-09-16T16:33:00.459Z,69.60
2017-09-16T16:35:28.002Z,70.18
2017-09-16T16:37:55.555Z,71.64
2017-09-16T16:40:23.172Z,70.22
2017-09-16T16:42:50.691Z,69.54
2017-09-16T16:45:18.200Z,70.66
2017-09-16T16:47:46.090Z,73.46
2017-09-16T16:50:13.797Z,76.12
2017-09-16T16:52:41.783Z,77.15
2017-09-16T16:55:09.322Z,80.25
2017-09-16T16:57:37.258Z,80.31
2017-09-16T17:00:04.792Z,78.14
2017-09-16T17:02:32.467Z,79.43
2017-09-16T17:04:59.996Z,78.59
2017-09-16T17:07:27.520Z,76.66
2017-09-16T17:09:55.457Z,80.07
2017-09-16T17:12:22.969Z,80.86
2017-09-16T17:14:50.787Z,81.70
2017-09-16T17:17:18.574Z,81.00
2017-09-16T17:19:46.103Z,81.59
2017-09-16T17:22:13.971Z,80.50
2017-09-16T17:24:41.479Z,79.87
2017-09-16T17:27:08.995Z,79.47
2017-09-16T17:29:36.523Z,80.10
2017-09-16T17:32:04.035Z,79.85
2017-09-16T17:34:31.684Z,79.64
2017-09-16T17:36:59.623Z,82.51
2017-09-16T17:39:28.617Z,81.92
2017-09-16T17:41:56.135Z,85.16
2017-09-16T17:44:24.360Z,85.03
2017-09-16T17:46:51.887Z,83.73
2017-09-16T17:49:19.403Z,82.44
2017-09-16T17:51:46.899Z,83.47
2017-09-16T17:54:14.691Z,86.78
2017-09-16T17:56:42.606Z,87.27
2017-09-16T17:59:10.168Z,87.69
2017-09-16T18:01:38.084Z,87.56
2017-09-16T18:04:05.954Z,86.95
2017-09-16T18:13:20.136Z,88.35
2017-09-16T18:15:48.113Z,89.90
2017-09-16T18:18:15.977Z,90.02
2017-09-16T18:20:43.478Z,89.17
2017-09-16T18:23:11.656Z,88.06
2017-09-16T18:25:39.169Z,87.64
2017-09-16T18:28:06.699Z,89.90
2017-09-16T18:30:34.712Z,90.83
2017-09-16T18:33:02.820Z,90.72
2017-09-16T18:35:30.334Z,89.60
2017-09-16T18:37:59.330Z,88.89
2017-09-16T18:40:29.218Z,89.75
2017-09-16T18:42:56.733Z,90.24
2017-09-16T18:45:24.360Z,89.01
2017-09-16T18:47:51.911Z,87.58
2017-09-16T18:50:22.116Z,87.92
2017-09-16T18:52:50.403Z,89.41
2017-09-16T18:55:18.905Z,91.65
2017-09-16T18:57:51.828Z,89.97
2017-09-16T19:00:21.404Z,90.82
2017-09-16T19:02:51.014Z,92.00
2017-09-16T19:05:18.547Z,93.13
2017-09-16T19:07:47.451Z,91.45
2017-09-16T19:10:14.984Z,89.63
2017-09-16T19:12:44.139Z,90.75
2017-09-16T19:15:15.861Z,91.75
2017-09-16T19:17:43.384Z,93.07
2017-09-16T19:20:13.097Z,93.28
2017-09-16T19:22:41.078Z,93.95
2017-09-16T19:25:08.607Z,94.41
2017-09-16T19:27:38.001Z,93.06
2017-09-16T19:30:06.223Z,94.08
2017-09-16T19:32:36.148Z,94.54
2017-09-16T19:35:03.955Z,94.92
2017-09-16T19:37:32.099Z,95.45
2017-09-16T19:39:59.628Z,95.89
2017-09-16T19:42:28.639Z,95.24
2017-09-16T19:44:57.416Z,95.50
2017-09-16T19:47:26.824Z,95.37
2017-09-16T19:50:01.670Z,95.56
2017-09-16T19:52:30.265Z,95.41
2017-09-16T19:54:58.735Z,95.86
2017-09-16T19:57:26.267Z,96.26
2017-09-16T19:59:55.640Z,96.26
2017-09-16T20:02:42.692Z,95.76
2017-09-16T20:05:10.245Z,95.93
2017-09-16T20:07:37.747Z,96.30
2017-09-16T20:10:05.849Z,96.11
2017-09-16T20:12:33.372Z,96.22
2017-09-16T20:15:00.918Z,95.09
2017-09-16T20:17:28.949Z,94.10
2017-09-16T20:19:56.446Z,95.07
2017-09-16T20:22:23.978Z,95.32
2017-09-16T20:24:52.476Z,95.66
2017-09-16T20:27:20.000Z,94.97
2017-09-16T20:29:47.527Z,94.56
2017-09-16T20:32:15.748Z,94.86
2017-09-16T20:34:45.192Z,94.55
2017-09-16T20:37:12.719Z,93.58
2017-09-16T20:39:40.224Z,93.69
2017-09-16T20:42:07.746Z,93.50
2017-09-16T20:44:36.695Z,93.42
2017-09-16T20:47:04.199Z,93.22
2017-09-16T20:49:32.645Z,93.47
2017-09-16T20:52:31.876Z,92.07
2017-09-16T20:54:59.419Z,92.44
2017-09-16T20:57:27.359Z,92.64
2017-09-16T21:00:04.332Z,92.52
2017-09-16T21:02:32.320Z,91.98
2017-09-16T21:04:59.831Z,91.21
2017-09-16T21:07:29.433Z,91.33
2017-09-16T21:09:56.928Z,91.83
2017-09-16T21:12:24.427Z,91.84
2017-09-16T21:14:51.948Z,92.19
2017-09-16T21:17:20.087Z,92.69
2017-09-16T21:19:47.604Z,91.95
2017-09-16T21:22:15.536Z,93.12
2017-09-16T21:24:43.046Z,94.52
2017-09-16T21:27:10.974Z,94.97
2017-09-16T21:29:38.473Z,94.77
2017-09-16T21:32:06.369Z,93.52
2017-09-16T21:34:34.146Z,91.26
2017-09-16T21:37:01.644Z,92.00
2017-09-16T21:39:29.399Z,93.70
2017-09-16T21:41:56.933Z,93.40
2017-09-16T21:44:24.818Z,93.20
2017-09-16T21:46:52.360Z,93.04
2017-09-16T21:49:20.144Z,92.90
2017-09-16T21:51:47.644Z,93.21
2017-09-16T21:54:15.143Z,90.65
2017-09-16T21:56:42.902Z,91.14
2017-09-16T21:59:10.410Z,90.16
2017-09-16T22:01:37.950Z,90.51
2017-09-16T22:04:05.440Z,91.26
2017-09-16T22:06:33.060Z,94.47
2017-09-16T22:09:00.561Z,95.62
2017-09-16T22:11:28.104Z,95.75
2017-09-16T22:13:55.667Z,95.02
2017-09-16T22:16:23.169Z,95.61
2017-09-16T22:18:50.684Z,94.76
2017-09-16T22:21:18.191Z,95.58
2017-09-16T22:23:45.701Z,96.10
2017-09-16T22:26:13.203Z,96.75
2017-09-16T22:28:40.698Z,96.37
2017-09-16T22:31:08.200Z,96.20
2017-09-16T22:33:35.715Z,96.97
2017-09-16T22:36:03.245Z,97.15
2017-09-16T22:38:30.755Z,97.58
2017-09-16T22:40:58.261Z,97.70
2017-09-16T22:43:25.818Z,97.66
2017-09-16T22:45:53.377Z,97.47
2017-09-16T22:48:20.896Z,97.93
2017-09-16T22:50:48.402Z,97.79
2017-09-16T22:53:15.931Z,97.56
2017-09-16T22:55:43.438Z,96.71
2017-09-16T22:58:10.942Z,94.42
2017-09-16T23:00:38.440Z,94.38
2017-09-16T23:03:05.934Z,95.17
2017-09-16T23:05:33.432Z,96.52
2017-09-16T23:08:00.938Z,97.17
2017-09-16T23:10:32.082Z,96.75
2017-09-16T23:12:59.626Z,96.81
2017-09-16T23:15:27.127Z,96.71
2017-09-16T23:17:54.659Z,97.22
2017-09-16T23:20:22.275Z,96.37
2017-09-16T23:22:49.772Z,97.21
2017-09-16T23:25:17.267Z,97.44
2017-09-16T23:27:44.763Z,97.29
2017-09-16T23:30:12.267Z,97.70
2017-09-16T23:32:39.759Z,96.92
2017-09-16T23:35:07.249Z,96.84
2017-09-16T23:37:34.768Z,97.49
2017-09-16T23:40:02.263Z,97.63
2017-09-16T23:42:29.759Z,96.77
2017-09-16T23:44:57.264Z,97.45
2017-09-16T23:47:24.776Z,97.45
2017-09-16T23:49:52.280Z,96.16
2017-09-16T23:52:19.774Z,94.44
2017-09-16T23:54:47.275Z,95.52
2017-09-16T23:57:14.781Z,95.91
2017-09-16T23:59:42.285Z,96.64
